createdAt,value
2022-12-18T00:00:09.725Z,47.13
2022-12-18T00:02:43.336Z,45.65
2022-12-18T00:05:12.392Z,31.15
2022-12-18T00:07:40.372Z,51.95
2022-12-18T00:10:10.503Z,45.03
2022-12-18T00:12:38.496Z,52.00
2022-12-18T00:15:07.333Z,43.53
2022-12-18T00:17:35.276Z,51.90
2022-12-18T00:20:03.478Z,50.92
2022-12-18T00:22:31.411Z,48.78
2022-12-18T00:24:59.400Z,44.42
2022-12-18T00:27:28.766Z,52.28
2022-12-18T00:29:56.769Z,49.88
2022-12-18T00:32:24.768Z,46.55
2022-12-18T00:34:52.689Z,53.08
2022-12-18T00:37:20.694Z,49.22
2022-12-18T00:39:52.502Z,51.80
2022-12-18T00:42:38.872Z,48.78
2022-12-18T00:45:13.000Z,49.40
2022-12-18T00:47:41.832Z,47.22
2022-12-18T00:50:11.158Z,56.50
2022-12-18T00:52:39.238Z,55.30
2022-12-18T00:55:07.978Z,52.13
2022-12-18T00:57:36.186Z,51.13
2022-12-18T01:00:06.329Z,50.05
2022-12-18T01:02:35.883Z,52.17
2022-12-18T01:05:03.974Z,46.33
2022-12-18T01:07:32.039Z,51.67
2022-12-18T01:10:00.011Z,45.33
2022-12-18T01:12:28.184Z,46.78
2022-12-18T01:14:56.166Z,44.20
2022-12-18T01:17:24.227Z,48.40
2022-12-18T01:19:53.619Z,49.67
2022-12-18T01:22:21.624Z,43.55
2022-12-18T01:24:49.660Z,44.70
2022-12-18T01:27:17.653Z,45.20
2022-12-18T01:29:45.683Z,47.28
2022-12-18T01:32:13.697Z,51.90
2022-12-18T01:34:42.899Z,50.05
2022-12-18T01:37:12.408Z,49.63
2022-12-18T01:39:40.375Z,61.58
2022-12-18T01:42:14.824Z,49.03
2022-12-18T01:45:06.955Z,46.53
2022-12-18T01:47:40.267Z,44.78
2022-12-18T01:50:12.341Z,46.90
2022-12-18T01:52:44.292Z,47.28
2022-12-18T01:55:13.818Z,47.40
2022-12-18T01:57:43.435Z,52.85
2022-12-18T02:01:12.683Z,51.97
2022-12-18T02:03:43.407Z,45.00
2022-12-18T02:06:18.003Z,49.28
2022-12-18T02:09:00.197Z,51.38
2022-12-18T02:11:41.739Z,46.90
2022-12-18T02:14:20.337Z,46.35
2022-12-18T02:16:54.989Z,48.60
2022-12-18T02:19:41.965Z,51.20
2022-12-18T02:22:27.090Z,45.67
2022-12-18T02:25:06.022Z,50.97
2022-12-18T02:27:37.270Z,52.42
2022-12-18T02:30:08.206Z,54.97
2022-12-18T02:32:41.962Z,51.08
2022-12-18T02:35:15.838Z,51.38
2022-12-18T02:37:47.025Z,49.10
2022-12-18T02:40:19.337Z,48.92
2022-12-18T02:42:48.933Z,52.53
2022-12-18T02:45:19.827Z,54.40
2022-12-18T02:47:51.753Z,49.63
2022-12-18T02:50:32.825Z,53.50
2022-12-18T02:53:13.532Z,52.38
2022-12-18T02:55:55.791Z,51.15
2022-12-18T02:58:32.472Z,54.22
2022-12-18T03:01:16.153Z,58.40
2022-12-18T03:03:50.036Z,47.92
2022-12-18T03:06:25.062Z,51.70
2022-12-18T03:08:58.747Z,53.00
2022-12-18T03:11:49.350Z,49.40
2022-12-18T03:14:22.814Z,46.75
2022-12-18T03:16:56.253Z,54.75
2022-12-18T03:19:28.343Z,60.25
2022-12-18T03:22:03.356Z,53.83
2022-12-18T03:24:40.680Z,58.95
2022-12-18T03:27:14.829Z,52.88
2022-12-18T03:29:48.414Z,47.85
2022-12-18T03:32:27.204Z,55.00
2022-12-18T03:34:59.783Z,54.53
2022-12-18T03:37:32.535Z,54.58
2022-12-18T03:40:01.211Z,53.08
2022-12-18T03:42:38.817Z,61.03
2022-12-18T03:45:22.606Z,57.25
2022-12-18T03:48:00.706Z,58.22
2022-12-18T03:50:39.878Z,56.17
2022-12-18T03:53:17.553Z,55.33
2022-12-18T03:55:53.346Z,57.97
2022-12-18T03:58:26.631Z,62.13
2022-12-18T04:01:11.219Z,61.63
2022-12-18T04:03:43.887Z,63.90
2022-12-18T04:06:13.919Z,61.13
2022-12-18T04:08:44.221Z,63.22
2022-12-18T04:11:17.284Z,56.83
2022-12-18T04:13:47.165Z,67.68
2022-12-18T04:16:25.738Z,57.75
2022-12-18T04:18:57.050Z,56.20
2022-12-18T04:21:29.317Z,74.65
2022-12-18T04:23:57.362Z,66.80
2022-12-18T04:26:25.477Z,69.85
2022-12-18T04:29:19.611Z,62.50
2022-12-18T04:31:48.957Z,69.72
2022-12-18T04:34:17.991Z,61.30
2022-12-18T04:36:51.428Z,57.92
2022-12-18T04:39:19.769Z,54.10
2022-12-18T04:41:54.890Z,57.08
2022-12-18T04:44:22.884Z,54.30
2022-12-18T04:46:53.161Z,56.35
2022-12-18T04:49:21.696Z,57.92
2022-12-18T04:51:49.664Z,65.10
2022-12-18T04:54:17.895Z,51.45
2022-12-18T04:56:45.836Z,50.95
2022-12-18T04:59:15.377Z,40.30
2022-12-18T05:01:43.382Z,55.80
2022-12-18T05:04:13.675Z,52.30
2022-12-18T05:06:41.689Z,45.95
2022-12-18T05:09:09.746Z,51.45
2022-12-18T05:11:37.734Z,45.17
2022-12-18T05:14:05.988Z,46.60
2022-12-18T05:16:34.114Z,58.67
2022-12-18T05:19:02.075Z,53.33
2022-12-18T05:21:31.495Z,52.40
2022-12-18T05:24:06.063Z,56.30
2022-12-18T05:26:34.105Z,50.97
2022-12-18T05:29:02.085Z,51.45
2022-12-18T05:31:32.408Z,54.53
2022-12-18T05:34:03.992Z,65.20
2022-12-18T05:36:33.691Z,51.10
2022-12-18T05:39:02.229Z,54.63
2022-12-18T05:41:30.587Z,59.72
2022-12-18T05:43:58.545Z,59.35
2022-12-18T05:46:26.752Z,51.88
2022-12-18T05:48:54.818Z,49.25
2022-12-18T05:51:24.407Z,52.08
2022-12-18T05:53:54.009Z,60.42
2022-12-18T05:56:25.192Z,67.07
2022-12-18T05:58:55.033Z,63.00
2022-12-18T06:01:27.556Z,59.13
2022-12-18T06:03:56.384Z,56.67
2022-12-18T06:06:26.295Z,58.38
2022-12-18T06:08:56.214Z,66.45
2022-12-18T06:11:26.671Z,66.93
2022-12-18T06:13:58.716Z,70.45
2022-12-18T06:16:27.797Z,75.53
2022-12-18T06:18:57.834Z,69.68
2022-12-18T06:21:25.888Z,69.10
2022-12-18T06:23:55.271Z,52.03
2022-12-18T06:26:28.026Z,69.03
2022-12-18T06:28:56.897Z,67.38
2022-12-18T06:31:25.390Z,66.13
2022-12-18T06:33:53.612Z,69.00
2022-12-18T06:36:22.090Z,65.85
2022-12-18T06:38:50.240Z,74.93
2022-12-18T06:41:22.178Z,77.15
2022-12-18T06:43:55.693Z,80.35
2022-12-18T06:46:24.990Z,84.15
2022-12-18T06:48:53.012Z,72.97
2022-12-18T06:51:21.982Z,76.68
2022-12-18T06:53:50.172Z,65.22
2022-12-18T06:56:19.876Z,73.53
2022-12-18T06:58:48.078Z,78.05
2022-12-18T07:01:16.187Z,74.47
2022-12-18T07:03:45.154Z,70.28
2022-12-18T07:06:18.379Z,67.25
2022-12-18T07:08:48.806Z,67.70
2022-12-18T07:11:18.114Z,83.78
2022-12-18T07:13:48.403Z,82.32
2022-12-18T07:16:24.853Z,81.57
2022-12-18T07:18:53.981Z,85.03
2022-12-18T07:21:22.388Z,93.40
2022-12-18T07:23:50.607Z,77.03
2022-12-18T07:26:20.915Z,71.80
2022-12-18T07:28:50.635Z,58.83
2022-12-18T07:31:21.581Z,61.00
2022-12-18T07:33:50.939Z,62.40
2022-12-18T07:36:19.569Z,67.20
2022-12-18T07:38:50.233Z,62.45
2022-12-18T07:41:19.744Z,57.42
2022-12-18T07:43:48.017Z,63.42
2022-12-18T07:46:18.252Z,60.40
2022-12-18T07:48:49.743Z,64.40
2022-12-18T07:51:19.216Z,63.10
2022-12-18T07:53:52.019Z,74.88
2022-12-18T07:56:27.824Z,68.70
2022-12-18T07:58:57.414Z,74.25
2022-12-18T08:01:27.334Z,61.47
2022-12-18T08:03:55.672Z,70.28
2022-12-18T08:06:24.463Z,59.70
2022-12-18T08:08:54.584Z,65.47
2022-12-18T08:11:23.661Z,72.28
2022-12-18T08:13:51.882Z,67.85
2022-12-18T08:16:20.893Z,74.70
2022-12-18T08:18:50.961Z,72.55
2022-12-18T08:21:22.243Z,63.13
2022-12-18T08:23:51.683Z,68.70
2022-12-18T08:26:21.005Z,57.80
2022-12-18T08:28:49.999Z,57.83
2022-12-18T08:31:19.455Z,53.17
2022-12-18T08:33:50.115Z,55.40
2022-12-18T08:36:20.133Z,54.40
2022-12-18T08:38:48.584Z,52.15
2022-12-18T08:41:19.242Z,49.28
2022-12-18T08:44:04.973Z,61.13
2022-12-18T08:46:37.549Z,56.13
2022-12-18T08:49:08.098Z,56.78
2022-12-18T08:51:38.275Z,57.72
2022-12-18T08:54:07.595Z,62.72
2022-12-18T08:56:36.154Z,51.15
2022-12-18T08:59:05.527Z,56.58
2022-12-18T09:01:33.805Z,55.17
2022-12-18T09:04:03.443Z,57.22
2022-12-18T09:06:32.949Z,56.65
2022-12-18T09:09:02.828Z,42.35
2022-12-18T09:11:34.596Z,52.58
2022-12-18T09:14:03.676Z,49.13
2022-12-18T09:16:36.015Z,46.90
2022-12-18T09:19:06.080Z,53.65
2022-12-18T09:21:36.903Z,47.58
2022-12-18T09:24:08.647Z,57.13
2022-12-18T09:26:37.966Z,57.65
2022-12-18T09:29:08.244Z,58.13
2022-12-18T09:31:36.878Z,56.05
2022-12-18T09:34:04.933Z,52.42
2022-12-18T09:36:33.265Z,47.38
2022-12-18T09:39:05.106Z,48.13
2022-12-18T09:41:46.775Z,34.25
2022-12-18T09:44:28.437Z,43.03
2022-12-18T09:47:12.223Z,50.00
2022-12-18T09:49:44.902Z,47.10
2022-12-18T09:52:17.879Z,44.80
2022-12-18T09:54:48.852Z,43.80
2022-12-18T09:57:21.736Z,54.03
2022-12-18T09:59:56.565Z,37.03
2022-12-18T10:02:27.044Z,35.92
2022-12-18T10:05:09.588Z,44.25
2022-12-18T10:07:50.013Z,39.53
2022-12-18T10:10:32.819Z,40.10
2022-12-18T10:13:11.198Z,44.40
2022-12-18T10:15:44.611Z,47.08
2022-12-18T10:18:28.719Z,44.30
2022-12-18T10:21:02.138Z,47.90
2022-12-18T10:23:35.636Z,44.05
2022-12-18T10:26:06.769Z,55.47
2022-12-18T10:28:41.229Z,56.55
2022-12-18T10:31:14.993Z,57.45
2022-12-18T10:33:43.090Z,53.35
2022-12-18T10:36:11.374Z,44.97
2022-12-18T10:38:40.462Z,49.58
2022-12-18T10:41:27.736Z,40.00
2022-12-18T10:44:20.213Z,52.83
2022-12-18T10:46:50.195Z,45.20
2022-12-18T10:49:24.383Z,27.15
2022-12-18T10:51:54.147Z,33.97
2022-12-18T10:54:25.083Z,42.67
2022-12-18T10:56:53.359Z,45.65
2022-12-18T10:59:22.775Z,42.25
2022-12-18T11:01:53.979Z,44.47
2022-12-18T11:04:24.498Z,47.55
2022-12-18T11:07:00.770Z,49.63
2022-12-18T11:09:30.083Z,44.55
2022-12-18T11:12:00.360Z,42.10
2022-12-18T11:14:32.103Z,42.58
2022-12-18T11:17:31.851Z,42.17
2022-12-18T11:19:55.522Z,39.95
2022-12-18T11:22:27.569Z,43.72
2022-12-18T11:25:30.918Z,39.22
2022-12-18T11:27:51.585Z,43.90
2022-12-18T11:30:27.151Z,42.55
2022-12-18T11:32:59.654Z,40.70
2022-12-18T11:35:39.006Z,42.65
2022-12-18T11:38:24.386Z,43.05
2022-12-18T11:40:58.769Z,45.80
2022-12-18T11:43:37.808Z,41.58
2022-12-18T11:46:16.070Z,37.78
2022-12-18T11:48:52.332Z,45.15
2022-12-18T11:51:27.943Z,48.60
2022-12-18T11:54:00.284Z,42.38
2022-12-18T11:56:34.805Z,41.83
2022-12-18T11:59:15.081Z,43.90
2022-12-18T12:01:53.971Z,48.60
2022-12-18T12:04:43.314Z,48.30
2022-12-18T12:07:33.784Z,43.97
2022-12-18T12:10:14.760Z,40.60
2022-12-18T12:13:05.335Z,43.33
2022-12-18T12:15:45.677Z,45.22
2022-12-18T12:18:24.893Z,42.60
2022-12-18T12:21:02.240Z,42.92
2022-12-18T12:23:38.381Z,34.33
2022-12-18T12:26:10.587Z,34.60
2022-12-18T12:28:55.767Z,43.78
2022-12-18T12:31:32.863Z,38.40
2022-12-18T12:34:09.204Z,40.70
2022-12-18T12:36:47.554Z,36.83
2022-12-18T12:39:20.393Z,34.70
2022-12-18T12:42:06.588Z,37.00
2022-12-18T12:44:43.930Z,38.13
2022-12-18T12:47:17.976Z,35.85
2022-12-18T12:49:49.975Z,32.70
2022-12-18T12:52:29.721Z,34.92
2022-12-18T12:55:03.724Z,35.50
2022-12-18T12:57:39.739Z,34.67
2022-12-18T13:00:14.134Z,41.75
2022-12-18T13:02:49.601Z,36.17
2022-12-18T13:05:26.139Z,33.42
2022-12-18T13:07:59.317Z,41.35
2022-12-18T13:10:36.199Z,34.38
2022-12-18T13:13:07.277Z,37.10
2022-12-18T13:15:42.356Z,40.55
2022-12-18T13:18:17.869Z,37.63
2022-12-18T13:20:55.157Z,32.92
2022-12-18T13:23:41.634Z,41.65
2022-12-18T13:26:35.364Z,31.02
2022-12-18T13:29:05.363Z,35.13
2022-12-18T13:32:10.338Z,34.28
2022-12-18T13:34:38.576Z,35.70
2022-12-18T13:37:46.544Z,40.58
2022-12-18T13:41:00.258Z,35.70
2022-12-18T13:43:35.917Z,36.25
2022-12-18T13:46:20.073Z,39.58
2022-12-18T13:48:54.314Z,42.50
2022-12-18T13:51:23.287Z,33.83
2022-12-18T13:53:55.816Z,44.53
2022-12-18T13:56:26.914Z,39.75
2022-12-18T13:59:18.532Z,40.83
2022-12-18T14:01:48.922Z,42.03
2022-12-18T14:04:26.339Z,43.13
2022-12-18T14:06:58.622Z,40.65
2022-12-18T14:09:31.089Z,39.92
2022-12-18T14:12:20.574Z,42.17
2022-12-18T14:14:53.078Z,45.38
2022-12-18T14:17:23.234Z,46.00
2022-12-18T14:19:53.237Z,43.95
2022-12-18T14:22:23.805Z,45.35
2022-12-18T14:25:17.215Z,42.67
2022-12-18T14:27:49.138Z,48.75
2022-12-18T14:30:28.196Z,55.45
2022-12-18T14:33:03.802Z,73.32
2022-12-18T14:35:32.521Z,76.90
2022-12-18T14:38:23.560Z,73.65
2022-12-18T14:40:56.797Z,85.43
2022-12-18T14:43:25.093Z,79.63
2022-12-18T14:45:53.707Z,66.75
2022-12-18T14:48:26.776Z,64.68
2022-12-18T14:51:00.608Z,69.72
2022-12-18T14:53:36.697Z,68.85
2022-12-18T14:58:48.586Z,78.10
2022-12-18T15:01:26.304Z,79.32
2022-12-18T15:03:55.874Z,83.95
2022-12-18T15:06:30.271Z,77.68
2022-12-18T15:08:58.496Z,87.15
2022-12-18T15:11:36.903Z,87.05
2022-12-18T15:14:24.443Z,85.13
2022-12-18T15:16:55.855Z,78.93
2022-12-18T15:19:27.980Z,86.35
2022-12-18T15:21:58.123Z,106.47
2022-12-18T15:24:32.351Z,114.25
2022-12-18T15:27:02.566Z,118.07
2022-12-18T15:29:30.634Z,114.57
2022-12-18T15:32:03.365Z,124.28
2022-12-18T15:34:32.113Z,124.80
2022-12-18T15:37:00.225Z,113.55
2022-12-18T15:39:28.325Z,94.75
2022-12-18T15:42:13.730Z,93.47
2022-12-18T15:44:43.183Z,106.82
2022-12-18T15:47:14.173Z,106.78
2022-12-18T15:49:42.392Z,87.28
2022-12-18T15:52:26.989Z,78.60
2022-12-18T15:55:12.600Z,71.78
2022-12-18T15:57:42.649Z,64.85
2022-12-18T16:00:14.458Z,73.00
2022-12-18T16:02:42.906Z,74.93
2022-12-18T16:05:18.082Z,78.78
2022-12-18T16:07:46.216Z,78.40
2022-12-18T16:10:14.381Z,77.13
2022-12-18T16:12:43.718Z,80.57
2022-12-18T16:15:24.556Z,93.10
2022-12-18T16:17:53.749Z,90.95
2022-12-18T16:20:23.973Z,102.38
2022-12-18T16:22:52.153Z,129.05
2022-12-18T16:25:22.379Z,135.55
2022-12-18T16:27:50.961Z,130.13
2022-12-18T16:30:22.641Z,155.77
2022-12-18T16:32:51.114Z,147.88
2022-12-18T16:35:19.596Z,121.18
2022-12-18T16:37:47.612Z,110.05
2022-12-18T16:40:17.698Z,110.13
2022-12-18T16:42:47.416Z,104.90
2022-12-18T16:45:22.080Z,110.88
2022-12-18T16:47:52.330Z,97.63
2022-12-18T16:50:20.460Z,100.85
2022-12-18T16:52:48.608Z,106.88
2022-12-18T16:55:16.842Z,100.43
2022-12-18T16:57:44.943Z,107.18
2022-12-18T17:00:14.496Z,116.35
2022-12-18T17:02:42.850Z,106.18
2022-12-18T17:05:12.847Z,100.30
2022-12-18T17:07:41.092Z,95.97
2022-12-18T17:10:10.127Z,94.82
2022-12-18T17:12:38.190Z,91.07
2022-12-18T17:15:09.884Z,86.53
2022-12-18T17:17:37.971Z,77.97
2022-12-18T17:20:06.771Z,87.85
2022-12-18T17:22:36.156Z,90.32
2022-12-18T17:25:04.543Z,82.78
2022-12-18T17:27:32.613Z,87.80
2022-12-18T17:30:00.646Z,94.55
2022-12-18T17:32:29.165Z,83.95
2022-12-18T17:34:57.274Z,98.38
2022-12-18T17:37:25.680Z,99.00
2022-12-18T17:39:55.718Z,107.93
2022-12-18T17:42:23.896Z,110.95
2022-12-18T17:44:52.329Z,99.75
2022-12-18T17:47:20.393Z,100.95
2022-12-18T17:49:51.229Z,112.38
2022-12-18T17:52:20.091Z,117.20
2022-12-18T17:54:50.166Z,115.38
2022-12-18T17:57:22.525Z,112.20
2022-12-18T17:59:51.914Z,108.32
2022-12-18T18:02:20.305Z,107.85
2022-12-18T18:04:49.254Z,104.13
2022-12-18T18:07:17.381Z,110.38
2022-12-18T18:09:47.714Z,97.50
2022-12-18T18:12:33.204Z,100.88
2022-12-18T18:15:06.080Z,100.07
2022-12-18T18:17:34.240Z,101.40
2022-12-18T18:20:02.513Z,112.70
2022-12-18T18:22:30.599Z,130.35
2022-12-18T18:24:59.356Z,119.13
2022-12-18T18:27:27.487Z,124.43
2022-12-18T18:29:55.644Z,117.75
2022-12-18T18:32:25.762Z,130.65
2022-12-18T18:34:54.207Z,160.55
2022-12-18T18:37:22.571Z,175.82
2022-12-18T18:39:52.685Z,207.35
2022-12-18T18:42:22.099Z,207.77
2022-12-18T18:44:50.308Z,213.65
2022-12-18T18:47:18.427Z,199.98
2022-12-18T18:49:48.170Z,173.88
2022-12-18T18:52:16.744Z,183.70
2022-12-18T18:55:10.827Z,207.45
2022-12-18T18:57:34.313Z,175.43
2022-12-18T19:00:02.495Z,172.88
2022-12-18T19:02:31.282Z,197.45
2022-12-18T19:05:00.802Z,183.23
2022-12-18T19:07:30.513Z,187.82
2022-12-18T19:10:04.197Z,201.32
2022-12-18T19:12:51.813Z,209.88
2022-12-18T19:15:20.130Z,198.38
2022-12-18T19:17:48.696Z,200.35
2022-12-18T19:20:18.421Z,195.25
2022-12-18T19:22:55.500Z,193.38
2022-12-18T19:25:38.112Z,194.65
2022-12-18T19:28:17.373Z,181.57
2022-12-18T19:30:57.268Z,176.02
2022-12-18T19:33:44.654Z,160.90
2022-12-18T19:36:20.005Z,148.05
2022-12-18T19:38:53.118Z,135.77
2022-12-18T19:41:22.435Z,124.78
2022-12-18T19:43:51.889Z,123.63
2022-12-18T19:46:22.567Z,119.60
2022-12-18T19:48:51.538Z,111.00
2022-12-18T19:51:26.633Z,119.82
2022-12-18T19:53:58.964Z,124.77
2022-12-18T19:56:30.155Z,108.28
2022-12-18T19:58:58.677Z,113.70
2022-12-18T20:01:30.145Z,112.68
2022-12-18T20:03:59.755Z,125.18
2022-12-18T20:06:32.236Z,132.95
2022-12-18T20:09:04.795Z,148.15
2022-12-18T20:11:38.394Z,170.27
2022-12-18T20:14:10.540Z,165.55
2022-12-18T20:16:39.478Z,166.38
2022-12-18T20:19:08.947Z,159.85
2022-12-18T20:21:39.623Z,152.30
2022-12-18T20:24:09.235Z,168.23
2022-12-18T20:26:37.410Z,176.23
2022-12-18T20:29:06.343Z,173.65
2022-12-18T20:31:34.742Z,174.30
2022-12-18T20:34:03.772Z,184.40
2022-12-18T20:36:36.577Z,167.70
2022-12-18T20:39:09.988Z,180.35
2022-12-18T20:41:39.455Z,157.25
2022-12-18T20:44:21.558Z,174.05
2022-12-18T20:46:53.028Z,154.45
2022-12-18T20:49:21.347Z,148.52
2022-12-18T20:51:52.516Z,127.88
2022-12-18T20:54:22.875Z,129.50
2022-12-18T20:56:51.585Z,123.88
2022-12-18T20:59:20.023Z,134.70
2022-12-18T21:01:50.317Z,135.10
2022-12-18T21:04:19.143Z,126.15
2022-12-18T21:06:52.064Z,127.82
2022-12-18T21:09:24.615Z,134.93
2022-12-18T21:12:13.217Z,109.57
2022-12-18T21:14:43.522Z,106.25
2022-12-18T21:17:12.117Z,116.25
2022-12-18T21:19:40.678Z,110.38
2022-12-18T21:22:10.965Z,103.55
2022-12-18T21:24:40.875Z,94.47
2022-12-18T21:27:09.263Z,92.55
2022-12-18T21:29:41.040Z,105.45
2022-12-18T21:32:10.301Z,106.90
2022-12-18T21:34:40.334Z,105.28
2022-12-18T21:37:11.722Z,92.60
2022-12-18T21:39:41.912Z,96.03
2022-12-18T21:42:29.215Z,100.55
2022-12-18T21:44:57.494Z,119.50
2022-12-18T21:47:25.998Z,116.43
2022-12-18T21:49:54.869Z,131.88
2022-12-18T21:52:27.248Z,130.32
2022-12-18T21:55:08.961Z,136.82
2022-12-18T21:57:38.527Z,142.80
2022-12-18T22:00:08.334Z,148.90
2022-12-18T22:02:42.716Z,158.65
2022-12-18T22:05:11.119Z,155.73
2022-12-18T22:07:39.969Z,195.07
2022-12-18T22:10:10.500Z,171.32
2022-12-18T22:12:44.403Z,168.40
2022-12-18T22:15:21.538Z,178.52
2022-12-18T22:18:00.152Z,166.77
2022-12-18T22:20:30.020Z,173.98
2022-12-18T22:22:58.649Z,167.90
2022-12-18T22:25:29.096Z,173.18
2022-12-18T22:28:14.997Z,155.68
2022-12-18T22:30:44.342Z,175.27
2022-12-18T22:33:12.635Z,170.30
2022-12-18T22:35:41.100Z,162.20
2022-12-18T22:38:09.443Z,174.77
2022-12-18T22:40:38.899Z,154.50
2022-12-18T22:43:07.327Z,154.32
2022-12-18T22:45:38.389Z,168.90
2022-12-18T22:48:07.359Z,169.93
2022-12-18T22:50:35.612Z,157.77
2022-12-18T22:53:03.779Z,164.55
2022-12-18T22:55:36.332Z,143.10
2022-12-18T22:58:05.838Z,155.48
2022-12-18T23:00:33.829Z,145.65
2022-12-18T23:03:02.293Z,159.73
2022-12-18T23:05:31.486Z,138.27
2022-12-18T23:08:00.022Z,143.48
2022-12-18T23:10:29.002Z,145.10
2022-12-18T23:12:57.299Z,151.52
2022-12-18T23:15:28.216Z,146.77
2022-12-18T23:17:59.002Z,135.38
2022-12-18T23:20:27.630Z,152.02
2022-12-18T23:22:55.734Z,143.38
2022-12-18T23:25:24.126Z,158.70
2022-12-18T23:27:52.328Z,143.02
2022-12-18T23:30:20.392Z,155.40
2022-12-18T23:32:49.848Z,152.93
2022-12-18T23:35:18.622Z,149.02
2022-12-18T23:38:03.924Z,135.55
2022-12-18T23:40:36.062Z,118.18
2022-12-18T23:43:04.201Z,123.40
2022-12-18T23:45:32.277Z,106.43
2022-12-18T23:48:01.712Z,97.32
2022-12-18T23:50:30.355Z,96.63
2022-12-18T23:53:04.596Z,95.65
2022-12-18T23:55:33.649Z,111.25
2022-12-18T23:58:01.668Z,98.13
